Time;durP1;ratioP1;P1;durP2;ratioP2;P2;SDS_P1;SDS_P2;PMS_P1;PMS_P2;Temp;Humidity;BMP_temperature;BMP_pressure;BME280_temperature;BME280_humidity;BME280_pressure;Samples;Min_cycle;Max_cycle;Signal;HPM_P1;HPM_P2
2022/03/03 00:01:47;;;;;;;;;74.67;61.33;;;;;11.93;52.63;101189.84;5097607;27;45546;-93
2022/03/03 00:04:13;;;;;;;;;72.33;57.00;;;;;11.85;52.74;101169.81;5095572;27;45724;-92
2022/03/03 00:06:38;;;;;;;;;72.33;56.33;;;;;11.97;52.83;101184.31;5096443;27;45540;-92
2022/03/03 00:09:05;;;;;;;;;71.33;55.67;;;;;11.82;52.98;101164.66;5098863;27;48390;-94
2022/03/03 00:11:31;;;;;;;;;73.00;58.67;;;;;11.89;53.05;101182.09;5094862;27;45535;-92
2022/03/03 00:13:57;;;;;;;;;68.67;56.00;;;;;11.92;53.43;101176.56;5113358;27;45482;-92
2022/03/03 00:16:24;;;;;;;;;69.00;55.67;;;;;11.90;53.21;101178.44;5095384;27;45322;-94
2022/03/03 00:18:49;;;;;;;;;74.67;60.33;;;;;11.85;53.30;101167.16;5095386;27;48030;-94
2022/03/03 00:21:14;;;;;;;;;73.67;58.00;;;;;11.93;53.14;101180.97;5090829;27;45535;-94
2022/03/03 00:23:40;;;;;;;;;72.67;57.00;;;;;11.86;53.08;101166.22;5087402;27;45401;-92
2022/03/03 00:26:05;;;;;;;;;70.67;56.00;;;;;11.84;52.95;101160.97;5090727;27;45470;-92
2022/03/03 00:28:31;;;;;;;;;71.00;55.00;;;;;11.84;53.13;101154.78;5104841;27;47514;-93
2022/03/03 00:30:56;;;;;;;;;71.00;55.00;;;;;11.91;53.12;101175.72;5092103;27;45242;-92
2022/03/03 00:33:22;;;;;;;;;70.33;54.33;;;;;11.86;53.34;101168.88;5100551;27;45548;-92
2022/03/03 00:35:47;;;;;;;;;70.00;55.33;;;;;11.75;53.16;101157.94;5085114;27;45385;-92
2022/03/03 00:38:13;;;;;;;;;70.33;55.00;;;;;11.81;53.34;101162.91;5092353;27;47077;-92
2022/03/03 00:40:39;;;;;;;;;70.00;55.00;;;;;11.75;53.37;101155.25;5105411;27;45502;-91
2022/03/03 00:43:06;;;;;;;;;66.33;52.00;;;;;11.88;53.43;101175.00;5088563;27;45459;-92
2022/03/03 00:45:35;;;;;;;;;70.00;55.67;;;;;11.88;53.19;101169.66;5101727;27;45482;-92
2022/03/03 00:48:02;;;;;;;;;68.33;55.67;;;;;11.90;53.41;101171.31;5094312;27;46094;-92
2022/03/03 00:50:28;;;;;;;;;70.33;54.33;;;;;11.89;53.39;101176.75;5094560;27;45430;-92
2022/03/03 00:52:53;;;;;;;;;67.00;54.67;;;;;11.89;53.58;101182.94;5098688;27;45469;-93
2022/03/03 00:55:18;;;;;;;;;67.00;51.33;;;;;11.90;53.34;101189.13;5098112;27;45628;-93
2022/03/03 00:57:44;;;;;;;;;67.33;53.67;;;;;11.75;53.62;101153.44;5091788;27;48263;-92
2022/03/03 01:00:10;;;;;;;;;73.33;57.67;;;;;11.89;53.95;101177.59;5091805;27;46144;-94
2022/03/03 01:02:36;;;;;;;;;71.33;57.67;;;;;11.89;53.81;101185.59;5107060;27;45476;-92
2022/03/03 01:05:03;;;;;;;;;68.00;53.33;;;;;11.89;53.47;101185.59;5089876;27;45383;-93
2022/03/03 01:07:29;;;;;;;;;65.33;53.00;;;;;11.77;53.86;101162.22;5091616;27;47613;-94
2022/03/03 01:09:54;;;;;;;;;66.67;53.67;;;;;11.83;53.72;101177.03;5093110;27;45773;-95
2022/03/03 01:12:19;;;;;;;;;66.00;52.00;;;;;11.92;53.72;101179.22;5090771;27;45327;-92
2022/03/03 01:14:45;;;;;;;;;64.33;50.67;;;;;11.92;53.93;101179.22;5090940;27;45465;-93
2022/03/03 01:17:11;;;;;;;;;65.67;52.33;;;;;11.93;53.62;101179.16;5094557;27;45707;-93
2022/03/03 01:19:36;;;;;;;;;61.67;49.33;;;;;11.91;53.67;101172.19;5091450;27;45500;-95
2022/03/03 01:22:01;;;;;;;;;65.00;50.67;;;;;11.78;53.57;101152.41;5091201;27;45505;-93
2022/03/03 01:24:27;;;;;;;;;62.67;51.00;;;;;11.88;53.83;101183.91;5093003;27;45474;-93
2022/03/03 01:26:52;;;;;;;;;62.00;49.67;;;;;11.88;53.81;101181.22;5093439;27;45462;-92
2022/03/03 01:29:18;;;;;;;;;67.00;52.33;;;;;11.91;53.79;101181.06;5093160;27;45711;-94
2022/03/03 01:31:43;;;;;;;;;62.00;50.33;;;;;11.87;53.71;101176.81;5087013;27;45446;-94
2022/03/03 01:34:09;;;;;;;;;66.67;53.00;;;;;11.84;53.93;101165.44;5090669;27;45506;-93
2022/03/03 01:36:35;;;;;;;;;61.00;49.33;;;;;11.86;53.92;101177.75;5089497;27;45332;-95
2022/03/03 01:39:01;;;;;;;;;66.67;54.00;;;;;11.88;53.88;101181.22;5096549;27;45458;-94
2022/03/03 01:41:26;;;;;;;;;60.00;47.67;;;;;11.81;54.06;101174.47;5087469;27;45573;-94
2022/03/03 01:43:52;;;;;;;;;69.33;52.33;;;;;11.83;54.18;101166.38;5089402;27;45536;-93
2022/03/03 01:46:17;;;;;;;;;67.00;53.00;;;;;11.70;54.36;101144.84;5096093;27;48346;-94
2022/03/03 01:48:46;;;;;;;;;65.33;52.33;;;;;11.82;54.23;101167.31;5096316;27;45531;-94
2022/03/03 01:51:12;;;;;;;;;65.00;51.67;;;;;11.85;54.41;101168.00;5092098;27;45318;-94
2022/03/03 01:53:39;;;;;;;;;64.00;50.67;;;;;11.86;54.26;101167.06;5092014;27;45254;-95
2022/03/03 01:56:05;;;;;;;;;63.33;51.33;;;;;11.80;54.29;101154.06;5092080;27;45639;-94
2022/03/03 01:58:31;;;;;;;;;66.33;53.33;;;;;11.72;54.25;101143.81;5094994;27;45394;-95
2022/03/03 02:00:57;;;;;;;;;67.00;54.00;;;;;11.80;54.26;101151.38;5098491;27;47245;-94
2022/03/03 02:03:22;;;;;;;;;67.00;54.00;;;;;11.86;54.29;101161.75;5095143;27;45640;-94
2022/03/03 02:05:48;;;;;;;;;68.67;54.33;;;;;11.83;54.51;101145.88;5093762;27;47034;-95
2022/03/03 02:08:13;;;;;;;;;68.00;53.33;;;;;11.78;54.38;101137.28;5109544;27;45758;-94
2022/03/03 02:10:39;;;;;;;;;66.33;52.67;;;;;11.84;54.41;101150.28;5098380;27;45386;-94
2022/03/03 02:13:06;;;;;;;;;66.00;52.00;;;;;11.90;54.55;101149.09;5106895;27;45396;-94
2022/03/03 02:15:31;;;;;;;;;66.00;53.33;;;;;11.89;54.49;101148.25;5095016;27;47450;-95
2022/03/03 02:17:57;;;;;;;;;66.00;53.67;;;;;11.84;54.49;101136.94;5111395;27;45502;-94
2022/03/03 02:20:28;;;;;;;;;60.67;48.33;;;;;11.91;54.69;101142.84;5095627;27;45585;-94
2022/03/03 02:22:55;;;;;;;;;69.00;52.67;;;;;11.93;54.64;101140.97;5093869;27;45491;-96
2022/03/03 02:25:22;;;;;;;;;67.00;53.33;;;;;11.98;54.56;101146.00;5098408;27;46939;-93
2022/03/03 02:27:47;;;;;;;;;60.00;48.33;;;;;11.98;54.40;101146.00;5093490;27;45449;-95
2022/03/03 02:30:14;;;;;;;;;64.33;51.33;;;;;11.98;54.69;101144.22;5101040;27;45254;-93
2022/03/03 02:32:40;;;;;;;;;65.33;51.67;;;;;11.98;54.70;101152.22;5092956;27;45388;-94
2022/03/03 02:35:07;;;;;;;;;69.00;52.00;;;;;11.98;54.55;101146.00;5095623;27;47975;-94
2022/03/03 02:37:34;;;;;;;;;61.00;49.33;;;;;12.02;54.67;101148.44;5093452;27;45693;-95
2022/03/03 02:40:00;;;;;;;;;64.67;52.00;;;;;12.03;54.60;101139.50;5114167;27;45503;-95
2022/03/03 02:42:26;;;;;;;;;68.33;53.67;;;;;11.97;54.50;101136.31;5113790;27;45478;-94
2022/03/03 02:44:51;;;;;;;;;65.00;51.00;;;;;12.02;54.60;101132.41;5090863;27;48140;-94
2022/03/03 02:47:17;;;;;;;;;66.33;51.33;;;;;12.07;54.47;101141.03;5098180;27;45314;-93
2022/03/03 02:49:42;;;;;;;;;66.33;52.33;;;;;12.07;54.53;101142.84;5095399;27;45288;-93
2022/03/03 02:52:07;;;;;;;;;65.67;51.33;;;;;12.05;54.50;101134.06;5092831;27;45324;-95
2022/03/03 02:54:33;;;;;;;;;67.33;52.33;;;;;12.01;54.27;101129.84;5095107;27;47330;-95
2022/03/03 02:59:42;;;;;;;;;67.67;52.67;;;;;12.07;54.83;101129.50;5091501;27;45336;-94
2022/03/03 03:02:07;;;;;;;;;65.33;51.00;;;;;12.00;54.44;101112.09;5088311;27;45620;-93
2022/03/03 03:04:33;;;;;;;;;56.33;46.67;;;;;11.94;54.70;101107.97;5091632;27;47202;-92
2022/03/03 03:06:58;;;;;;;;;66.00;53.33;;;;;12.05;54.54;101118.03;5098219;27;45311;-93
2022/03/03 03:09:23;;;;;;;;;66.00;51.67;;;;;12.06;54.55;101120.63;5096720;27;45477;-92
2022/03/03 03:11:49;;;;;;;;;65.00;52.67;;;;;12.07;54.47;101119.66;5095719;27;45257;-92
2022/03/03 03:14:14;;;;;;;;;66.00;51.00;;;;;12.07;54.69;101111.66;5112155;27;49064;-92
2022/03/03 03:16:39;;;;;;;;;64.67;52.67;;;;;12.01;54.76;101095.16;5092857;27;45407;-93
2022/03/03 03:19:05;;;;;;;;;62.67;50.33;;;;;12.05;54.68;101100.25;5110423;27;45375;-93
2022/03/03 03:21:30;;;;;;;;;64.67;51.33;;;;;12.07;54.73;101092.13;5089271;27;45375;-93
2022/03/03 03:23:55;;;;;;;;;64.67;51.00;;;;;12.07;54.76;101098.31;5092337;27;50582;-94
2022/03/03 03:26:21;;;;;;;;;64.67;52.00;;;;;12.01;54.84;101081.81;5096009;27;45438;-94
2022/03/03 03:28:46;;;;;;;;;66.00;53.00;;;;;12.14;54.76;101104.19;5098245;27;45432;-94
2022/03/03 03:31:11;;;;;;;;;65.00;53.33;;;;;12.12;54.67;101090.94;5087904;27;45490;-93
2022/03/03 03:33:37;;;;;;;;;64.67;53.00;;;;;12.05;54.69;101080.69;5113699;27;47732;-93
2022/03/03 03:36:03;;;;;;;;;66.33;52.00;;;;;12.05;54.78;101072.69;5091208;27;45245;-94
2022/03/03 03:38:28;;;;;;;;;59.00;48.33;;;;;12.15;54.65;101084.56;5096645;27;45429;-93
2022/03/03 03:40:53;;;;;;;;;63.67;50.00;;;;;12.13;54.69;101075.78;5089231;27;45424;-93
2022/03/03 03:43:19;;;;;;;;;62.00;49.33;;;;;12.08;54.96;101076.03;5093673;27;46614;-93
2022/03/03 03:45:44;;;;;;;;;64.33;48.67;;;;;12.13;55.08;101086.47;5095755;27;45387;-94
2022/03/03 03:48:10;;;;;;;;;63.33;50.67;;;;;12.03;55.07;101061.25;5096675;27;45357;-93
2022/03/03 03:50:35;;;;;;;;;64.67;52.33;;;;;12.16;54.77;101083.59;5096150;27;45705;-92
2022/03/03 03:53:00;;;;;;;;;62.67;51.00;;;;;12.02;54.83;101060.38;5092673;27;46965;-92
2022/03/03 03:55:26;;;;;;;;;64.00;52.00;;;;;12.17;55.24;101082.69;5095163;27;45514;-92
2022/03/03 03:57:51;;;;;;;;;63.33;52.00;;;;;12.09;55.04;101063.56;5105775;27;45334;-92
2022/03/03 04:00:17;;;;;;;;;70.67;53.67;;;;;12.19;55.26;101075.41;5094653;27;45284;-92
2022/03/03 04:02:44;;;;;;;;;66.00;52.00;;;;;12.21;55.19;101084.19;5083435;27;46971;-93
2022/03/03 04:05:11;;;;;;;;;69.00;52.67;;;;;12.10;55.18;101065.28;5089286;27;45852;-93
2022/03/03 04:07:37;;;;;;;;;63.67;51.33;;;;;12.07;55.34;101065.44;5112128;27;45450;-93
2022/03/03 04:10:03;;;;;;;;;69.33;54.33;;;;;12.21;55.30;101081.53;5095209;27;45589;-92
2022/03/03 04:12:29;;;;;;;;;60.67;50.00;;;;;12.14;55.09;101054.34;5088547;27;46644;-95
2022/03/03 04:14:54;;;;;;;;;64.67;51.00;;;;;12.12;55.15;101048.25;5096532;27;45358;-94
2022/03/03 04:17:19;;;;;;;;;63.67;50.00;;;;;12.20;55.21;101053.13;5095166;27;45965;-94
2022/03/03 04:19:45;;;;;;;;;63.67;49.33;;;;;12.25;55.25;101063.56;5096005;27;45440;-94
2022/03/03 04:22:10;;;;;;;;;63.33;49.67;;;;;12.20;55.42;101053.13;5094605;27;47088;-94
2022/03/03 04:24:36;;;;;;;;;52.33;45.00;;;;;12.06;55.35;101021.06;5113711;27;45881;-94
2022/03/03 04:27:01;;;;;;;;;63.67;50.33;;;;;12.15;55.57;101039.19;5095735;27;45864;-91
2022/03/03 04:29:27;;;;;;;;;65.67;52.00;;;;;12.23;55.28;101042.28;5088677;27;45730;-93
2022/03/03 04:31:53;;;;;;;;;63.00;50.00;;;;;12.22;55.50;101042.34;5097161;27;46373;-95
2022/03/03 04:34:20;;;;;;;;;67.33;51.33;;;;;12.21;55.70;101041.50;5084206;27;46015;-93
2022/03/03 04:36:46;;;;;;;;;58.00;48.00;;;;;12.12;55.74;101023.34;5083183;27;45447;-94
2022/03/03 04:39:13;;;;;;;;;65.00;51.33;;;;;12.13;55.65;101017.94;5088588;27;45373;-93
2022/03/03 04:41:39;;;;;;;;;59.33;48.00;;;;;12.15;56.12;101015.19;5109409;27;48254;-94
2022/03/03 04:44:04;;;;;;;;;59.67;48.00;;;;;12.15;56.25;101009.84;5106831;27;45535;-93
2022/03/03 04:46:30;;;;;;;;;62.67;49.67;;;;;12.26;56.15;101020.72;5092050;27;45301;-92
2022/03/03 04:48:59;;;;;;;;;64.00;49.00;;;;;12.24;55.93;101020.00;5090006;27;45424;-93
2022/03/03 04:51:28;;;;;;;;;64.33;50.00;;;;;12.17;56.01;101009.72;5096779;27;46199;-91
2022/03/03 04:53:53;;;;;;;;;60.33;48.67;;;;;12.25;56.64;101026.19;5093261;27;45365;-93
2022/03/03 04:56:19;;;;;;;;;54.67;45.67;;;;;12.13;56.65;101009.06;5095706;27;45440;-92
2022/03/03 04:58:45;;;;;;;;;61.67;48.33;;;;;12.19;56.70;101014.03;5096202;27;45278;-94
2022/03/03 05:01:11;;;;;;;;;58.33;46.33;;;;;12.23;56.82;101028.94;5079131;27;48296;-94
2022/03/03 05:03:36;;;;;;;;;56.33;44.33;;;;;12.08;57.08;101004.00;5078327;27;45406;-93
2022/03/03 05:06:02;;;;;;;;;54.33;45.67;;;;;12.13;56.71;101009.06;5083645;27;45399;-93
2022/03/03 05:08:27;;;;;;;;;54.33;45.00;;;;;12.13;56.97;101006.41;5092548;27;45472;-93
2022/03/03 05:10:52;;;;;;;;;52.75;44.25;;;;;12.11;57.14;101002.97;5095297;27;46848;-93
2022/03/03 05:13:18;;;;;;;;;51.00;42.50;;;;;12.11;57.14;101003.81;5096838;27;45938;-94
2022/03/03 05:15:43;;;;;;;;;57.00;47.00;;;;;12.14;57.55;101008.09;5095907;27;45375;-92
2022/03/03 05:18:08;;;;;;;;;57.75;46.50;;;;;12.17;57.46;101013.28;5096207;27;45517;-92
2022/03/03 05:20:34;;;;;;;;;56.33;45.00;;;;;12.09;57.49;101000.38;5095457;27;47530;-93
2022/03/03 05:22:59;;;;;;;;;55.33;46.33;;;;;12.23;57.44;101012.06;5095115;27;45440;-94
2022/03/03 05:25:24;;;;;;;;;52.75;44.00;;;;;12.16;57.58;101003.53;5096480;27;45313;-93
2022/03/03 05:27:50;;;;;;;;;57.75;46.25;;;;;12.23;57.48;101020.06;5097662;27;45550;-93
2022/03/03 05:30:16;;;;;;;;;58.67;46.00;;;;;12.10;57.46;100995.91;5094762;27;47139;-92
2022/03/03 05:32:41;;;;;;;;;53.00;44.25;;;;;12.23;57.70;101007.56;5098576;27;45832;-93
2022/03/03 05:35:07;;;;;;;;;52.00;43.00;;;;;12.26;57.98;101020.72;5104594;27;45380;-94
2022/03/03 05:37:34;;;;;;;;;56.75;46.25;;;;;12.26;58.22;101012.72;5107425;27;45342;-94
2022/03/03 05:40:00;;;;;;;;;55.25;45.25;;;;;12.28;58.00;101020.66;5100402;27;47192;-94
2022/03/03 05:42:26;;;;;;;;;54.25;42.75;;;;;12.16;58.05;100998.22;5100825;27;45671;-94
2022/03/03 05:44:52;;;;;;;;;52.50;43.00;;;;;12.27;57.92;101011.78;5100599;27;45327;-94
2022/03/03 05:47:18;;;;;;;;;55.25;44.25;;;;;12.31;58.03;101010.66;5101245;27;45222;-94
2022/03/03 05:49:45;;;;;;;;;53.50;44.25;;;;;12.16;57.98;100987.53;5106234;27;48650;-92
2022/03/03 05:52:12;;;;;;;;;52.25;44.50;;;;;12.22;58.41;101004.97;5107276;27;45363;-93
2022/03/03 05:54:37;;;;;;;;;51.75;42.75;;;;;12.23;58.29;100998.72;5103602;27;45265;-93
2022/03/03 05:57:10;;;;;;;;;53.50;44.25;;;;;12.19;58.58;100990.00;5102993;27;45274;-92
2022/03/03 05:59:36;;;;;;;;;54.75;44.00;;;;;12.33;58.35;101021.22;5105283;27;47467;-92
2022/03/03 06:02:02;;;;;;;;;50.75;42.25;;;;;12.33;58.09;101022.09;5104350;27;45605;-92
2022/03/03 06:04:28;;;;;;;;;54.25;44.50;;;;;12.29;58.63;101003.69;5104324;27;45367;-93
2022/03/03 06:07:03;;;;;;;;;55.50;44.75;;;;;12.36;58.80;101016.59;5099228;27;45543;-92
2022/03/03 06:09:35;;;;;;;;;51.50;42.00;;;;;12.31;59.03;101008.00;5077658;27;48136;-92
2022/03/03 06:12:18;;;;;;;;;50.25;41.25;;;;;12.38;58.95;101007.63;5095229;27;45437;-93
2022/03/03 06:14:55;;;;;;;;;56.00;46.00;;;;;12.33;59.40;100998.06;5098368;27;45369;-93
2022/03/03 06:17:25;;;;;;;;;50.00;41.00;;;;;12.30;59.25;101000.06;5099218;27;45362;-92
2022/03/03 06:19:52;;;;;;;;;51.50;42.50;;;;;12.42;59.20;101019.84;5091530;27;45414;-92
2022/03/03 06:22:18;;;;;;;;;49.25;40.75;;;;;12.41;59.31;101031.47;5095055;27;45649;-92
2022/03/03 06:24:44;;;;;;;;;47.25;37.50;;;;;12.39;59.21;101023.56;5096573;27;45783;-93
2022/03/03 06:27:09;;;;;;;;;51.25;39.75;;;;;12.34;59.33;101018.50;5097681;27;45624;-93
2022/03/03 06:29:36;;;;;;;;;49.25;39.75;;;;;12.35;59.61;101025.53;5096883;27;48092;-93
2022/03/03 06:32:02;;;;;;;;;50.00;41.25;;;;;12.41;59.68;101034.13;5097261;27;45681;-92
2022/03/03 06:34:28;;;;;;;;;50.25;40.00;;;;;12.30;59.29;101016.94;5113663;27;45521;-91
2022/03/03 06:36:54;;;;;;;;;46.50;36.75;;;;;12.26;59.89;101006.53;5097355;27;45520;-92
2022/03/03 06:39:19;;;;;;;;;55.25;43.50;;;;;12.40;59.97;101029.75;5098112;27;45388;-92
2022/03/03 06:41:45;;;;;;;;;49.50;38.50;;;;;12.31;59.99;101016.00;5096717;27;45360;-92
2022/03/03 06:44:10;;;;;;;;;51.75;40.25;;;;;12.34;60.02;101025.66;5095854;27;45516;-92
2022/03/03 06:46:36;;;;;;;;;52.25;40.75;;;;;12.39;60.09;101033.34;5096998;27;45270;-93
2022/03/03 06:49:01;;;;;;;;;53.00;43.00;;;;;12.26;60.27;101007.38;5097706;27;46839;-93
2022/03/03 06:51:40;;;;;;;;;56.00;41.50;;;;;12.40;60.43;101041.28;5090080;27;45428;-91
2022/03/03 06:54:06;;;;;;;;;48.00;38.50;;;;;12.42;60.59;101036.72;5098003;27;45604;-92
2022/03/03 06:56:35;;;;;;;;;47.00;38.00;;;;;12.45;60.21;101041.00;5086960;27;45398;-92
2022/03/03 06:59:01;;;;;;;;;48.50;39.25;;;;;12.46;60.88;101048.06;5096341;27;45559;-91
2022/03/03 07:01:28;;;;;;;;;45.75;37.50;;;;;12.45;60.72;101041.00;5096022;27;45327;-90
2022/03/03 07:03:55;;;;;;;;;49.50;37.50;;;;;12.44;60.83;101044.66;5098270;27;45254;-94
2022/03/03 07:06:22;;;;;;;;;49.75;40.50;;;;;12.42;60.60;101041.19;5097883;27;45425;-93
2022/03/03 07:08:49;;;;;;;;;50.75;40.25;;;;;12.36;60.94;101026.38;5099052;27;45393;-92
2022/03/03 07:11:16;;;;;;;;;50.50;41.00;;;;;12.42;60.92;101034.03;5099486;27;45338;-93
2022/03/03 07:13:44;;;;;;;;;49.25;39.75;;;;;12.51;60.92;101046.00;5096606;27;45502;-92
2022/03/03 07:16:34;;;;;;;;;50.00;41.00;;;;;12.52;61.22;101039.69;5098841;27;45308;-93
2022/03/03 07:19:03;;;;;;;;;45.50;37.50;;;;;12.45;60.95;101033.00;5097990;27;46348;-91
2022/03/03 07:21:57;;;;;;;;;47.75;38.25;;;;;12.50;61.33;101044.28;5097426;27;45243;-92
2022/03/03 07:24:29;;;;;;;;;46.50;37.50;;;;;12.46;61.66;101046.28;5055535;28;45382;-91
2022/03/03 07:27:00;;;;;;;;;52.25;42.00;;;;;12.46;61.67;101048.94;5042116;28;45459;-92
2022/03/03 07:29:28;;;;;;;;;50.75;40.75;;;;;12.45;61.43;101039.19;5043197;28;46433;-92
2022/03/03 07:31:55;;;;;;;;;49.50;41.25;;;;;12.36;61.58;101026.38;5049560;28;45454;-92
2022/03/03 07:34:29;;;;;;;;;47.25;38.00;;;;;12.44;61.58;101042.84;5054810;28;45311;-92
2022/03/03 07:37:00;;;;;;;;;47.25;38.50;;;;;12.46;61.72;101046.28;5045000;28;45400;-92
2022/03/03 07:39:31;;;;;;;;;49.75;39.75;;;;;12.48;61.49;101035.47;5055442;28;45429;-93
2022/03/03 07:41:58;;;;;;;;;49.50;41.25;;;;;12.50;61.57;101036.25;5055019;28;45310;-91
2022/03/03 07:44:24;;;;;;;;;47.25;40.00;;;;;12.50;62.13;101038.94;5055253;28;45508;-92
2022/03/03 07:46:50;;;;;;;;;50.50;40.00;;;;;12.43;62.43;101037.56;5051681;28;45499;-92
2022/03/03 07:49:19;;;;;;;;;49.25;41.00;;;;;12.49;62.21;101039.91;5054604;28;45476;-92
2022/03/03 07:51:45;;;;;;;;;50.75;40.50;;;;;12.48;62.40;101038.16;5052438;28;45462;-93
2022/03/03 07:54:10;;;;;;;;;50.00;41.25;;;;;12.50;62.33;101025.56;5053492;28;45269;-93
2022/03/03 07:56:41;;;;;;;;;47.00;40.00;;;;;12.60;62.23;101041.91;5051683;28;45416;-91
2022/03/03 07:59:11;;;;;;;;;48.00;39.50;;;;;12.56;62.77;101039.44;5054260;28;45417;-91
2022/03/03 08:01:38;;;;;;;;;50.75;40.00;;;;;12.40;62.68;101009.25;5089938;27;45483;-92
2022/03/03 08:04:04;;;;;;;;;49.50;39.00;;;;;12.54;62.21;101032.47;5097012;27;45537;-92
2022/03/03 08:06:32;;;;;;;;;47.50;37.75;;;;;12.61;62.36;101041.81;5097027;27;45441;-93
2022/03/03 08:08:59;;;;;;;;;49.25;40.00;;;;;12.62;62.30;101029.31;5094788;27;45422;-93
2022/03/03 08:11:26;;;;;;;;;51.25;43.50;;;;;12.57;62.22;101022.44;5097647;27;45348;-91
2022/03/03 08:13:53;;;;;;;;;54.75;40.75;;;;;12.70;62.36;101041.28;5098136;27;45471;-93
2022/03/03 08:16:19;;;;;;;;;47.75;40.50;;;;;12.69;62.55;101034.19;5095507;27;45270;-93
2022/03/03 08:18:46;;;;;;;;;47.50;38.75;;;;;12.69;62.33;101022.66;5096329;27;47296;-93
2022/03/03 08:21:13;;;;;;;;;48.75;41.25;;;;;12.69;62.94;101033.34;5097616;27;45387;-93
2022/03/03 08:23:40;;;;;;;;;54.00;42.50;;;;;12.69;62.64;101034.19;5097934;27;45350;-93
2022/03/03 08:26:06;;;;;;;;;52.75;42.00;;;;;12.67;62.77;101021.91;5097944;27;45398;-92
2022/03/03 08:28:32;;;;;;;;;50.25;40.00;;;;;12.69;62.40;101028.00;5097036;27;46634;-94
2022/03/03 08:31:06;;;;;;;;;50.25;39.00;;;;;12.69;62.67;101020.00;5097818;27;45296;-91
2022/03/03 08:33:59;;;;;;;;;45.00;35.75;;;;;12.60;62.67;101009.84;5097219;27;45236;-92
2022/03/03 08:36:30;;;;;;;;;53.25;44.00;;;;;12.63;62.25;101009.66;5095416;27;45511;-93
2022/03/03 08:39:03;;;;;;;;;53.75;43.00;;;;;12.67;62.66;101022.75;5097253;27;46464;-93
2022/03/03 08:41:35;;;;;;;;;50.25;41.25;;;;;12.67;62.34;101020.06;5096979;27;45284;-93
2022/03/03 08:44:03;;;;;;;;;50.50;42.00;;;;;12.70;62.74;101025.25;5096697;27;45398;-93
2022/03/03 08:46:32;;;;;;;;;46.25;38.75;;;;;12.73;62.72;101040.25;5097533;27;45322;-93
2022/03/03 08:49:00;;;;;;;;;48.25;39.00;;;;;12.74;62.70;101037.44;5096973;27;46323;-92
2022/03/03 08:51:26;;;;;;;;;45.25;39.00;;;;;12.78;62.47;101038.13;5097085;27;45453;-93
2022/03/03 08:53:51;;;;;;;;;53.50;41.75;;;;;12.86;62.88;101035.00;5096182;27;45497;-93
2022/03/03 08:56:17;;;;;;;;;48.00;39.75;;;;;12.86;63.25;101037.66;5095776;27;45319;-91
2022/03/03 08:58:43;;;;;;;;;46.50;39.50;;;;;12.51;62.73;100979.25;5097009;27;45332;-92
2022/03/03 09:01:09;;;;;;;;;46.50;39.00;;;;;12.85;63.22;101031.47;5096020;27;45327;-91
2022/03/03 09:03:34;;;;;;;;;44.25;37.75;;;;;12.83;63.06;101027.19;5096521;27;45428;-92
2022/03/03 09:06:00;;;;;;;;;48.50;38.00;;;;;12.69;63.23;101007.50;5095851;27;45473;-92
2022/03/03 09:08:26;;;;;;;;;51.75;43.00;;;;;12.81;62.91;101023.72;5097061;27;46161;-91
2022/03/03 09:10:51;;;;;;;;;51.00;41.50;;;;;12.83;63.23;101028.03;5097029;27;45412;-93
2022/03/03 09:13:17;;;;;;;;;50.25;39.75;;;;;12.86;62.90;101027.84;5094809;27;45368;-92
2022/03/03 09:15:43;;;;;;;;;51.75;42.50;;;;;12.98;62.83;101031.56;5094983;27;45438;-92
2022/03/03 09:18:09;;;;;;;;;50.75;41.25;;;;;13.04;62.88;101039.22;5079252;27;45489;-93
2022/03/03 09:20:35;;;;;;;;;46.50;37.25;;;;;13.06;62.94;101044.44;5104185;27;45413;-92
2022/03/03 09:23:01;;;;;;;;;52.50;43.00;;;;;13.07;62.71;101043.53;5095239;27;47287;-92
2022/03/03 09:25:27;;;;;;;;;44.75;37.25;;;;;13.04;62.78;101035.69;5096208;27;45542;-93
2022/03/03 09:27:53;;;;;;;;;48.25;39.75;;;;;13.02;62.97;101030.44;5112361;27;47141;-93
2022/03/03 09:30:18;;;;;;;;;47.25;39.00;;;;;13.12;62.74;101044.94;5093308;27;45416;-94
2022/03/03 09:32:44;;;;;;;;;49.75;40.75;;;;;13.16;63.04;101042.94;5095108;27;45440;-92
2022/03/03 09:35:11;;;;;;;;;50.50;39.25;;;;;13.15;63.05;101044.75;5095315;27;45507;-92
2022/03/03 09:37:37;;;;;;;;;47.00;39.00;;;;;13.16;62.82;101042.94;5096833;27;45476;-93
2022/03/03 09:40:04;;;;;;;;;46.50;37.50;;;;;13.16;62.99;101041.13;5095660;27;46056;-92
2022/03/03 09:42:33;;;;;;;;;50.50;40.50;;;;;13.14;62.77;101023.47;5095022;27;45422;-93
2022/03/03 09:44:59;;;;;;;;;49.00;37.75;;;;;13.23;62.62;101038.94;5094718;27;45258;-93
2022/03/03 09:47:26;;;;;;;;;46.25;38.75;;;;;13.28;62.45;101044.91;5093774;27;48440;-92
2022/03/03 09:49:51;;;;;;;;;50.50;39.75;;;;;13.08;62.31;101007.81;5091569;27;45602;-93
2022/03/03 09:52:18;;;;;;;;;51.75;40.25;;;;;13.25;62.46;101038.81;5092597;27;45415;-93
2022/03/03 09:54:49;;;;;;;;;47.00;39.00;;;;;13.21;62.69;101038.19;5096070;27;45384;-92
2022/03/03 09:57:17;;;;;;;;;48.75;39.00;;;;;13.07;62.74;101020.31;5094234;27;48672;-92
2022/03/03 09:59:45;;;;;;;;;44.50;37.75;;;;;13.12;63.14;101033.41;5093152;27;45356;-93
2022/03/03 10:02:11;;;;;;;;;44.50;35.75;;;;;13.10;62.75;101033.47;5094419;27;45640;-92
2022/03/03 10:04:36;;;;;;;;;47.75;39.50;;;;;13.14;63.11;101037.69;5093360;27;45237;-93
2022/03/03 10:07:07;;;;;;;;;44.25;37.50;;;;;13.23;62.76;101044.28;5093976;27;46994;-93
2022/03/03 10:12:21;;;;;;;;;44.50;37.75;;;;;13.22;62.92;101039.88;5100616;27;45389;-92
2022/03/03 10:14:48;;;;;;;;;48.75;40.00;;;;;13.22;62.62;101030.03;5098894;27;45269;-92
2022/03/03 10:17:15;;;;;;;;;51.75;41.00;;;;;13.26;62.96;101037.91;5105306;27;47265;-94
2022/03/03 10:19:52;;;;;;;;;49.00;40.75;;;;;13.12;62.95;101007.53;5107464;27;44840;-92
2022/03/03 10:22:17;;;;;;;;;46.50;39.75;;;;;13.25;62.73;101033.47;5115066;27;45391;-94
2022/03/03 10:24:43;;;;;;;;;46.75;37.50;;;;;13.21;62.86;101023.00;5115499;27;45355;-93
2022/03/03 10:27:09;;;;;;;;;46.50;38.50;;;;;13.27;62.75;101024.44;5094149;27;48227;-93
2022/03/03 10:29:35;;;;;;;;;51.25;39.75;;;;;13.32;62.90;101030.34;5095577;27;45540;-92
2022/03/03 10:32:02;;;;;;;;;48.00;37.75;;;;;13.34;62.96;101028.44;5110204;27;45421;-92
2022/03/03 10:34:33;;;;;;;;;51.50;39.00;;;;;13.36;62.82;101025.69;5109125;27;45397;-93
2022/03/03 10:37:01;;;;;;;;;47.25;39.00;;;;;13.40;62.95;101024.53;5111572;27;48601;-92
2022/03/03 10:39:48;;;;;;;;;47.00;37.25;;;;;13.46;62.73;101025.97;5112170;27;45170;-92
2022/03/03 10:42:20;;;;;;;;;47.50;39.50;;;;;13.51;62.75;101024.69;5110320;27;45362;-92
2022/03/03 10:44:47;;;;;;;;;50.00;40.25;;;;;13.51;62.69;101018.50;5111532;27;45337;-92
2022/03/03 10:47:18;;;;;;;;;47.75;39.50;;;;;13.53;62.58;101022.78;5099965;27;47115;-93
2022/03/03 10:49:49;;;;;;;;;47.75;40.00;;;;;13.53;62.38;101025.47;5098799;27;45417;-92
2022/03/03 10:52:22;;;;;;;;;49.75;39.75;;;;;13.59;62.36;101032.25;5098437;27;45292;-92
2022/03/03 10:54:59;;;;;;;;;45.75;39.25;;;;;13.55;62.43;101018.22;5095664;27;45375;-94
2022/03/03 10:57:31;;;;;;;;;51.25;40.50;;;;;13.43;62.10;100982.41;5099295;27;46227;-93
2022/03/03 10:59:59;;;;;;;;;49.00;41.50;;;;;13.64;61.62;101014.09;5097049;27;45368;-93
2022/03/03 11:02:28;;;;;;;;;59.75;47.25;;;;;13.73;61.48;101016.16;5097652;27;45364;-93
2022/03/03 11:04:57;;;;;;;;;49.00;39.50;;;;;13.66;61.34;100997.91;5098770;27;45367;-94
2022/03/03 11:07:23;;;;;;;;;44.25;36.75;;;;;13.70;61.23;101018.19;5096507;27;46855;-92
2022/03/03 11:09:51;;;;;;;;;46.75;38.25;;;;;13.63;61.73;101002.50;5098398;27;45303;-94
2022/03/03 11:12:19;;;;;;;;;41.75;34.50;;;;;13.73;61.50;101012.63;5097296;27;45525;-93
2022/03/03 11:14:46;;;;;;;;;54.50;44.25;;;;;13.75;61.61;101016.06;5094381;27;45497;-92